Hamada, Japan

7:03 PM JST on May 22, 2015 (GMT +0900)
Iwakuni Marine Corps Air Station | | Change Station
CLOSE
Current Station
Airport
Location: Iwakuni MCAS,
Elevation: 7 ft
Nearby Weather Stations

Elev 7 ft 34.14 °N, 132.24 °E | Updated 8 minutes ago

Mostly Cloudy
Mostly Cloudy
76 °F
Feels Like 76 °F
N
5
Wind Variable Wind from ENE

Today
High -- | Low -- °F
--% Chance of Precip.
Yesterday
High -- | Low -- °F
Precip. -- in
5:04 AM 7:12 PM
Waxing Crescent, 20% visible
Pressure 29.92 in
Visibility 6.2 miles
Clouds Mostly Cloudy 23000 ft
Dew Point 59 °F
Humidity 56%
Rainfall 0.00 in
Snow Depth Not available.
UV 0 out of 12
Pollen Not available.
Air Quality Not available.
Flu Activity Not available.
METAR RJOI 220955Z 07004KT 9999 BKN230 24/15 A2992 RMK SLP130 T02440150

More Conditions Fewer Conditions

Pressure 29.92 in
Visibility 6.2 miles
Clouds Mostly Cloudy 23000 ft
Dew Point 59 °F
Humidity 56%
Rainfall 0.00 in
Snow Depth Not available.
UV 0 out of 12
Pollen Not available.
Air Quality Not available.
Flu Activity Not available.
METAR RJOI 220955Z 07004KT 9999 BKN230 24/15 A2992 RMK SLP130 T02440150

More Conditions Fewer Conditions

10-Day Weather Forecast

Almanac

Astronomy

May. 22, 2015 Rise Set
Actual Time
Civil Twilight
Nautical Twilight
Astronomical Twilight
Moon
Length of Visible Light
Length of Day
Tomorrow will be .
, % of the Moon is Illuminated

Today's Extremes

Country Highs Country Lows

Community

WunderPhotos

Upload Photos

1,823,197 photos uploaded!

WunderBlogs® & News

Nearby

Air Quality

  Air Quality AQ Index Pollutant
Not available.

Snow Depth

Station Depth Elevation

Earthquake Activity

City Distance Mag. Time & Date
Minimum magnitude displayed is 2.5.

Coastal Water Temperatures

Place Temperature

Stations

Nearby Weather Stations

Station Location Temp. Windchill Dew Point Humidity Wind Precip. Elev Updated Type